createdAt,value
2023-05-02T00:00:48.067Z,35.17
2023-05-02T00:03:19.691Z,31.42
2023-05-02T00:05:50.092Z,36.17
2023-05-02T00:08:20.645Z,32.87
2023-05-02T00:10:51.294Z,40.73
2023-05-02T00:13:21.738Z,30.67
2023-05-02T00:15:52.101Z,36.65
2023-05-02T00:18:22.524Z,36.23
2023-05-02T00:20:53.449Z,33.35
2023-05-02T00:23:23.939Z,35.83
2023-05-02T00:25:54.568Z,31.88
2023-05-02T00:28:25.104Z,34.17
2023-05-02T00:30:55.895Z,36.03
2023-05-02T00:33:26.426Z,31.50
2023-05-02T00:35:56.505Z,32.20
2023-05-02T00:38:26.791Z,31.92
2023-05-02T00:40:57.129Z,34.92
2023-05-02T00:43:28.376Z,36.85
2023-05-02T00:48:28.861Z,34.75
2023-05-02T00:50:59.864Z,33.20
2023-05-02T00:53:30.158Z,27.58
2023-05-02T00:56:04.642Z,33.22
2023-05-02T00:58:36.837Z,36.67
2023-05-02T01:01:32.664Z,33.58
2023-05-02T01:04:03.361Z,34.42
2023-05-02T01:06:45.711Z,28.05
2023-05-02T01:09:21.699Z,29.08
2023-05-02T01:12:12.698Z,34.60
2023-05-02T01:14:47.973Z,36.83
2023-05-02T01:17:19.890Z,36.47
2023-05-02T01:20:01.151Z,33.20
2023-05-02T01:22:33.161Z,34.90
2023-05-02T01:25:41.713Z,32.75
2023-05-02T01:28:36.136Z,34.67
2023-05-02T01:31:08.854Z,34.33
2023-05-02T01:33:41.233Z,29.40
2023-05-02T01:36:12.323Z,33.47
2023-05-02T01:38:45.211Z,29.83
2023-05-02T01:41:16.798Z,30.52
2023-05-02T01:43:48.518Z,29.17
2023-05-02T01:46:19.106Z,31.02
2023-05-02T01:48:51.906Z,28.93
2023-05-02T01:51:24.201Z,29.50
2023-05-02T01:53:55.904Z,29.90
2023-05-02T01:56:27.878Z,31.83
2023-05-02T01:58:59.497Z,29.23
2023-05-02T02:01:33.508Z,30.95
2023-05-02T02:04:07.580Z,27.40
2023-05-02T02:06:38.833Z,27.75
2023-05-02T02:09:09.436Z,27.25
2023-05-02T02:12:09.955Z,25.83
2023-05-02T02:14:42.461Z,28.58
2023-05-02T02:17:21.056Z,28.50
2023-05-02T02:19:54.796Z,26.85
2023-05-02T02:22:29.814Z,28.63
2023-05-02T02:25:01.984Z,25.92
2023-05-02T02:27:32.527Z,26.75
2023-05-02T02:30:03.863Z,29.50
2023-05-02T02:32:34.153Z,29.05
2023-05-02T02:35:08.266Z,29.03
2023-05-02T02:37:45.581Z,27.20
2023-05-02T02:40:34.609Z,27.33
2023-05-02T02:43:21.275Z,26.42
2023-05-02T02:46:11.865Z,27.83
2023-05-02T02:48:51.450Z,30.17
2023-05-02T02:51:40.604Z,28.30
2023-05-02T02:54:34.689Z,26.85
2023-05-02T02:57:17.925Z,25.58
2023-05-02T03:00:16.559Z,32.88
2023-05-02T03:02:49.426Z,29.50
2023-05-02T03:05:20.317Z,26.45
2023-05-02T03:07:51.010Z,26.85
2023-05-02T03:10:25.267Z,26.48
2023-05-02T03:12:58.750Z,26.83
2023-05-02T03:15:40.073Z,27.38
2023-05-02T03:18:11.787Z,28.55
2023-05-02T03:20:43.185Z,29.20
2023-05-02T03:23:13.868Z,25.90
2023-05-02T03:25:45.482Z,25.83
2023-05-02T03:28:22.232Z,26.77
2023-05-02T03:30:54.581Z,29.23
2023-05-02T03:33:26.189Z,26.52
2023-05-02T03:35:56.467Z,31.48
2023-05-02T03:38:27.120Z,27.50
2023-05-02T03:43:30.255Z,26.05
2023-05-02T03:46:01.113Z,26.33
2023-05-02T03:48:32.044Z,25.42
2023-05-02T03:51:03.123Z,24.60
2023-05-02T03:53:39.866Z,24.77
2023-05-02T03:58:52.568Z,24.92
2023-05-02T04:01:26.729Z,25.08
2023-05-02T04:03:58.429Z,25.70
2023-05-02T04:06:32.803Z,25.67
2023-05-02T04:09:07.461Z,23.80
2023-05-02T04:11:54.607Z,23.73
2023-05-02T04:14:26.062Z,26.52
2023-05-02T04:16:58.496Z,25.67
2023-05-02T04:19:46.132Z,28.95
2023-05-02T04:22:17.478Z,24.40
2023-05-02T04:24:53.133Z,23.67
2023-05-02T04:27:23.929Z,24.60
2023-05-02T04:29:54.450Z,27.08
2023-05-02T04:32:25.792Z,24.13
2023-05-02T04:34:57.222Z,24.00
2023-05-02T04:37:28.777Z,24.30
2023-05-02T04:39:59.762Z,23.60
2023-05-02T04:42:33.451Z,23.95
2023-05-02T04:45:15.723Z,26.63
2023-05-02T04:47:47.749Z,24.70
2023-05-02T04:50:18.178Z,25.33
2023-05-02T04:52:48.704Z,24.90
2023-05-02T04:55:19.049Z,25.70
2023-05-02T04:57:49.412Z,27.50
2023-05-02T05:02:51.065Z,26.92
2023-05-02T05:05:21.567Z,26.87
2023-05-02T05:07:52.469Z,27.63
2023-05-02T05:10:24.881Z,31.20
2023-05-02T05:12:55.894Z,27.13
2023-05-02T05:15:28.402Z,28.00
2023-05-02T05:18:01.546Z,26.70
2023-05-02T05:20:31.971Z,27.63
2023-05-02T05:23:04.399Z,28.10
2023-05-02T05:25:36.337Z,27.88
2023-05-02T05:28:06.756Z,28.50
2023-05-02T05:30:39.308Z,32.13
2023-05-02T05:33:13.275Z,29.40
2023-05-02T05:35:43.766Z,28.55
2023-05-02T05:38:14.208Z,28.20
2023-05-02T05:40:47.304Z,29.70
2023-05-02T05:43:17.886Z,29.17
2023-05-02T05:45:48.050Z,28.23
2023-05-02T05:48:19.292Z,27.85
2023-05-02T05:50:49.992Z,26.63
2023-05-02T05:53:20.610Z,28.00
2023-05-02T05:55:52.363Z,30.92
2023-05-02T05:58:22.911Z,30.10
2023-05-02T06:00:55.777Z,29.05
2023-05-02T06:03:26.772Z,29.80
2023-05-02T06:05:57.522Z,27.60
2023-05-02T06:10:59.126Z,26.17
2023-05-02T06:13:29.592Z,27.30
2023-05-02T06:16:04.990Z,26.33
2023-05-02T06:18:35.569Z,25.80
2023-05-02T06:21:10.932Z,27.65
2023-05-02T06:23:41.789Z,26.10
2023-05-02T06:26:12.648Z,25.92
2023-05-02T06:28:43.254Z,23.73
2023-05-02T06:31:13.659Z,25.07
2023-05-02T06:33:43.971Z,26.75
2023-05-02T06:36:14.805Z,25.00
2023-05-02T06:38:45.078Z,24.60
2023-05-02T06:41:18.809Z,28.40
2023-05-02T06:43:49.225Z,23.95
2023-05-02T06:46:21.182Z,24.93
2023-05-02T06:48:51.719Z,22.30
2023-05-02T06:51:23.546Z,22.77
2023-05-02T06:53:53.957Z,24.80
2023-05-02T06:56:24.278Z,23.60
2023-05-02T06:58:55.237Z,24.40
2023-05-02T07:01:25.595Z,24.55
2023-05-02T07:03:56.737Z,22.53
2023-05-02T07:06:27.515Z,23.38
2023-05-02T07:08:57.976Z,22.23
2023-05-02T07:11:28.694Z,22.67
2023-05-02T07:14:00.235Z,21.80
2023-05-02T07:16:31.155Z,24.88
2023-05-02T07:19:01.871Z,23.95
2023-05-02T07:21:32.117Z,23.83
2023-05-02T07:24:02.567Z,22.57
2023-05-02T07:26:32.981Z,22.85
2023-05-02T07:29:04.149Z,20.73
2023-05-02T07:31:34.404Z,23.58
2023-05-02T07:34:04.897Z,22.43
2023-05-02T07:36:35.353Z,22.08
2023-05-02T07:39:05.686Z,21.43
2023-05-02T07:41:35.879Z,20.88
2023-05-02T07:44:05.996Z,22.48
2023-05-02T07:46:36.228Z,20.85
2023-05-02T07:49:06.662Z,22.73
2023-05-02T07:51:36.954Z,21.63
2023-05-02T07:54:20.831Z,22.15
2023-05-02T07:56:54.091Z,22.20
2023-05-02T07:59:24.374Z,21.23
2023-05-02T08:01:54.618Z,24.00
2023-05-02T08:04:25.054Z,26.17
2023-05-02T08:06:55.652Z,23.50
2023-05-02T08:09:28.445Z,23.60
2023-05-02T08:11:58.697Z,23.35
2023-05-02T08:14:28.804Z,25.15
2023-05-02T08:16:59.079Z,23.30
2023-05-02T08:19:29.926Z,24.58
2023-05-02T08:22:00.296Z,24.75
2023-05-02T08:24:30.578Z,22.47
2023-05-02T08:27:00.860Z,23.15
2023-05-02T08:29:31.054Z,26.90
2023-05-02T08:32:01.663Z,24.02
2023-05-02T08:34:32.051Z,23.40
2023-05-02T08:37:02.909Z,25.13
2023-05-02T08:39:35.997Z,23.65
2023-05-02T08:42:11.008Z,26.65
2023-05-02T08:44:41.315Z,21.23
2023-05-02T08:47:17.144Z,21.15
2023-05-02T08:49:49.080Z,22.45
2023-05-02T08:52:22.994Z,20.60
2023-05-02T08:54:54.712Z,22.63
2023-05-02T08:57:25.003Z,20.88
2023-05-02T08:59:55.441Z,23.45
2023-05-02T09:02:47.465Z,21.17
2023-05-02T09:05:23.509Z,22.38
2023-05-02T09:07:55.003Z,23.48
2023-05-02T09:10:28.844Z,24.15
2023-05-02T09:12:59.318Z,22.30
2023-05-02T09:15:29.605Z,22.73
2023-05-02T09:18:00.061Z,20.92
2023-05-02T09:20:30.396Z,21.27
2023-05-02T09:23:00.734Z,21.63
2023-05-02T09:25:40.244Z,20.42
2023-05-02T09:28:10.607Z,22.48
2023-05-02T09:30:41.056Z,28.10
2023-05-02T09:33:11.496Z,22.70
2023-05-02T09:35:58.044Z,23.15
2023-05-02T09:38:28.439Z,25.08
2023-05-02T09:40:59.208Z,23.70
2023-05-02T09:43:29.961Z,23.80
2023-05-02T09:46:18.885Z,25.17
2023-05-02T09:49:01.633Z,24.75
2023-05-02T09:51:31.887Z,25.05
2023-05-02T09:54:02.305Z,24.80
2023-05-02T09:56:32.652Z,24.33
2023-05-02T09:59:19.271Z,26.02
2023-05-02T10:02:01.140Z,25.35
2023-05-02T10:04:34.123Z,25.08
2023-05-02T10:07:06.217Z,24.00
2023-05-02T10:09:38.795Z,24.50
2023-05-02T10:12:10.653Z,24.38
2023-05-02T10:14:49.106Z,24.98
2023-05-02T10:17:33.431Z,25.02
2023-05-02T10:20:06.240Z,25.67
2023-05-02T10:22:37.383Z,23.73
2023-05-02T10:25:08.604Z,24.73
2023-05-02T10:30:11.173Z,24.02
2023-05-02T10:35:12.985Z,25.75
2023-05-02T10:37:44.201Z,22.75
2023-05-02T10:40:17.966Z,23.92
2023-05-02T10:42:53.552Z,23.42
2023-05-02T10:45:37.673Z,25.42
2023-05-02T10:48:17.036Z,23.83
2023-05-02T10:50:54.026Z,23.70
2023-05-02T10:53:34.457Z,23.17
2023-05-02T10:56:30.692Z,22.73
2023-05-02T10:59:30.879Z,21.30
2023-05-02T11:02:01.361Z,16.40
2023-05-02T11:05:08.928Z,14.80
2023-05-02T11:07:40.513Z,19.20
2023-05-02T11:10:22.816Z,12.10
2023-05-02T11:13:03.371Z,11.90
2023-05-02T11:15:35.686Z,12.00
2023-05-02T11:18:16.657Z,11.77
2023-05-02T11:20:48.226Z,8.75
2023-05-02T11:25:50.805Z,10.27
2023-05-02T11:28:44.827Z,8.80
2023-05-02T11:32:01.580Z,10.52
2023-05-02T11:34:32.040Z,10.75
2023-05-02T11:37:02.709Z,8.27
2023-05-02T11:39:32.979Z,14.30
2023-05-02T11:42:03.387Z,10.83
2023-05-02T11:44:33.783Z,9.90
2023-05-02T11:47:05.093Z,13.00
2023-05-02T11:52:05.127Z,12.48
2023-05-02T11:54:35.426Z,14.30
2023-05-02T11:57:05.815Z,14.77
2023-05-02T12:00:00.782Z,13.90
2023-05-02T12:02:42.079Z,13.85
2023-05-02T12:07:48.566Z,12.13
2023-05-02T12:10:18.770Z,15.40
2023-05-02T12:12:49.053Z,17.48
2023-05-02T12:15:20.029Z,15.00
2023-05-02T12:17:54.755Z,11.82
2023-05-02T12:20:25.453Z,15.45
2023-05-02T12:22:55.760Z,16.98
2023-05-02T12:25:26.021Z,14.55
2023-05-02T12:28:06.331Z,14.33
2023-05-02T12:30:37.150Z,15.00
2023-05-02T12:33:08.938Z,17.98
2023-05-02T12:35:39.478Z,14.93
2023-05-02T12:38:17.176Z,14.20
2023-05-02T12:41:00.922Z,15.52
2023-05-02T12:43:48.693Z,13.38
2023-05-02T12:46:19.009Z,13.95
2023-05-02T12:48:49.282Z,14.93
2023-05-02T12:51:29.382Z,16.77
2023-05-02T12:53:59.539Z,14.00
2023-05-02T12:56:34.898Z,13.40
2023-05-02T12:59:07.634Z,15.75
2023-05-02T13:01:38.525Z,14.05
2023-05-02T13:04:08.917Z,14.77
2023-05-02T13:06:41.433Z,14.17
2023-05-02T13:09:11.709Z,18.10
2023-05-02T13:11:42.111Z,18.47
2023-05-02T13:14:13.944Z,16.08
2023-05-02T13:16:44.256Z,17.08
2023-05-02T13:19:14.596Z,16.55
2023-05-02T13:21:45.097Z,16.15
2023-05-02T13:24:15.677Z,19.60
2023-05-02T13:26:46.763Z,17.17
2023-05-02T13:29:17.082Z,20.15
2023-05-02T13:31:47.279Z,20.17
2023-05-02T13:34:17.582Z,18.33
2023-05-02T13:36:48.564Z,21.65
2023-05-02T13:39:18.912Z,22.23
2023-05-02T13:41:49.174Z,23.10
2023-05-02T13:59:45.022Z,29.90
2023-05-02T14:02:15.624Z,24.02
2023-05-02T14:04:46.106Z,27.37
2023-05-02T14:07:16.542Z,23.60
2023-05-02T14:09:46.972Z,24.00
2023-05-02T14:12:17.212Z,31.33
2023-05-02T14:14:47.323Z,32.33
2023-05-02T14:17:17.719Z,26.30
2023-05-02T14:19:48.011Z,29.37
2023-05-02T14:22:18.575Z,29.05
2023-05-02T14:24:48.814Z,30.27
2023-05-02T14:27:22.692Z,29.65
2023-05-02T14:29:53.188Z,29.27
2023-05-02T14:32:24.059Z,27.00
2023-05-02T14:34:54.402Z,28.83
2023-05-02T14:37:25.456Z,28.38
2023-05-02T14:42:28.952Z,28.55
2023-05-02T14:44:59.780Z,28.60
2023-05-02T14:47:33.519Z,26.27
2023-05-02T14:50:05.706Z,28.33
2023-05-02T14:52:36.051Z,27.77
2023-05-02T14:55:07.096Z,23.92
2023-05-02T14:57:37.579Z,36.25
2023-05-02T15:00:15.108Z,27.87
2023-05-02T15:02:45.517Z,27.63
2023-05-02T15:05:15.888Z,24.35
2023-05-02T15:07:46.312Z,26.25
2023-05-02T15:10:16.535Z,25.07
2023-05-02T15:15:54.038Z,26.83
2023-05-02T15:18:24.463Z,31.65
2023-05-02T15:20:54.760Z,25.77
2023-05-02T15:23:25.058Z,25.20
2023-05-02T15:25:55.327Z,30.10
2023-05-02T15:28:25.634Z,32.92
2023-05-02T15:30:55.973Z,23.23
2023-05-02T15:33:26.270Z,31.00
2023-05-02T15:36:03.317Z,25.98
2023-05-02T15:38:33.757Z,24.83
2023-05-02T15:41:04.111Z,26.43
2023-05-02T15:43:34.634Z,28.67
2023-05-02T15:46:05.143Z,24.23
2023-05-02T15:48:37.143Z,36.23
2023-05-02T15:51:11.525Z,24.83
2023-05-02T15:53:44.864Z,26.70
2023-05-02T15:56:15.457Z,31.65
2023-05-02T15:58:46.108Z,26.23
2023-05-02T16:01:16.506Z,28.00
2023-05-02T16:03:46.968Z,21.25
2023-05-02T16:06:18.506Z,23.47
2023-05-02T16:08:48.978Z,25.25
2023-05-02T16:11:19.372Z,27.10
2023-05-02T16:13:49.609Z,27.23
2023-05-02T16:16:20.113Z,29.85
2023-05-02T16:18:50.610Z,26.02
2023-05-02T16:21:21.139Z,30.27
2023-05-02T16:23:51.604Z,25.83
2023-05-02T16:26:23.216Z,30.35
2023-05-02T16:28:53.619Z,24.85
2023-05-02T16:31:23.864Z,32.05
2023-05-02T16:33:54.326Z,29.53
2023-05-02T16:36:25.173Z,28.30
2023-05-02T16:38:55.631Z,26.73
2023-05-02T16:41:25.984Z,27.88
2023-05-02T16:43:56.274Z,23.30
2023-05-02T16:46:26.416Z,29.15
2023-05-02T16:48:56.757Z,25.13
2023-05-02T16:51:26.888Z,28.85
2023-05-02T16:53:57.186Z,25.48
2023-05-02T16:56:27.352Z,26.42
2023-05-02T16:58:58.057Z,25.77
2023-05-02T17:01:28.400Z,29.30
2023-05-02T17:03:58.794Z,22.13
2023-05-02T17:06:29.081Z,24.00
2023-05-02T17:09:00.118Z,25.15
2023-05-02T17:11:30.942Z,22.48
2023-05-02T17:14:01.604Z,25.95
2023-05-02T17:16:32.203Z,25.05
2023-05-02T17:19:03.065Z,22.70
2023-05-02T17:21:33.834Z,21.13
2023-05-02T17:24:04.473Z,17.08
2023-05-02T17:26:34.870Z,20.00
2023-05-02T17:29:05.314Z,22.20
2023-05-02T17:31:35.711Z,23.35
2023-05-02T17:34:06.122Z,29.47
2023-05-02T17:36:36.762Z,20.87
2023-05-02T17:39:07.416Z,21.93
2023-05-02T17:41:40.929Z,17.88
2023-05-02T17:44:11.172Z,17.52
2023-05-02T17:46:41.547Z,23.03
2023-05-02T17:49:11.926Z,20.92
2023-05-02T17:51:42.353Z,20.77
2023-05-02T17:54:12.979Z,20.20
2023-05-02T17:56:43.331Z,18.63
2023-05-02T17:59:14.178Z,20.02
2023-05-02T18:01:44.581Z,21.52
2023-05-02T18:04:15.111Z,22.38
2023-05-02T18:06:45.663Z,23.13
2023-05-02T18:09:16.070Z,22.05
2023-05-02T18:11:46.446Z,20.97
2023-05-02T18:14:17.765Z,19.80
2023-05-02T18:16:51.533Z,20.33
2023-05-02T18:19:21.826Z,26.55
2023-05-02T18:21:52.313Z,23.00
2023-05-02T18:24:22.804Z,19.60
2023-05-02T18:26:53.327Z,18.90
2023-05-02T18:29:23.621Z,22.30
2023-05-02T18:31:54.923Z,23.58
2023-05-02T18:36:55.762Z,19.88
2023-05-02T18:39:26.051Z,18.00
2023-05-02T18:41:56.221Z,19.57
2023-05-02T18:44:26.929Z,18.95
2023-05-02T18:46:57.405Z,22.83
2023-05-02T18:49:28.724Z,17.63
2023-05-02T18:51:59.544Z,22.95
2023-05-02T18:54:30.431Z,18.17
2023-05-02T18:57:01.230Z,17.42
2023-05-02T18:59:32.133Z,17.63
2023-05-02T19:02:03.219Z,18.83
2023-05-02T19:04:34.246Z,21.33
2023-05-02T19:09:34.499Z,20.42
2023-05-02T19:12:04.773Z,20.45
2023-05-02T19:14:44.795Z,19.00
2023-05-02T19:17:15.413Z,17.88
2023-05-02T19:19:45.915Z,21.00
2023-05-02T19:22:17.286Z,19.40
2023-05-02T19:24:47.843Z,17.42
2023-05-02T19:27:18.213Z,22.50
2023-05-02T19:29:48.531Z,18.57
2023-05-02T19:32:18.620Z,19.20
2023-05-02T19:34:49.620Z,19.00
2023-05-02T19:37:19.955Z,17.48
2023-05-02T19:39:50.187Z,26.48
2023-05-02T19:42:20.452Z,21.13
2023-05-02T19:44:51.809Z,21.80
2023-05-02T19:49:53.886Z,22.00
2023-05-02T19:52:24.174Z,22.65
2023-05-02T19:54:54.411Z,28.05
2023-05-02T19:57:24.814Z,21.48
2023-05-02T19:59:55.377Z,23.27
2023-05-02T20:02:26.406Z,20.40
2023-05-02T20:07:27.754Z,20.43
2023-05-02T20:09:57.905Z,21.85
2023-05-02T20:12:28.274Z,22.15
2023-05-02T20:14:58.686Z,23.17
2023-05-02T20:17:29.633Z,21.00
2023-05-02T20:20:00.246Z,20.23
2023-05-02T20:22:30.581Z,20.95
2023-05-02T20:25:00.894Z,24.33
2023-05-02T20:27:31.003Z,25.60
2023-05-02T20:30:01.698Z,26.52
2023-05-02T20:32:32.218Z,22.52
2023-05-02T20:35:02.687Z,17.17
2023-05-02T20:37:33.105Z,22.45
2023-05-02T20:40:04.715Z,19.77
2023-05-02T20:42:35.856Z,19.58
2023-05-02T20:45:09.537Z,21.40
2023-05-02T20:47:39.949Z,20.80
2023-05-02T20:50:11.860Z,24.53
2023-05-02T20:52:42.117Z,28.25
2023-05-02T20:55:13.972Z,20.17
2023-05-02T20:57:44.312Z,22.85
2023-05-02T21:00:16.107Z,25.13
2023-05-02T21:02:46.408Z,23.48
2023-05-02T21:05:16.843Z,22.07
2023-05-02T21:07:47.385Z,23.23
2023-05-02T21:10:18.333Z,19.95
2023-05-02T21:12:48.623Z,24.45
2023-05-02T21:15:19.178Z,25.33
2023-05-02T21:17:49.560Z,29.07
2023-05-02T21:20:20.008Z,29.63
2023-05-02T21:22:50.238Z,32.55
2023-05-02T21:25:20.616Z,25.17
2023-05-02T21:27:50.758Z,24.83
2023-05-02T21:30:21.667Z,28.02
2023-05-02T21:32:52.032Z,30.33
2023-05-02T21:35:22.582Z,23.77
2023-05-02T21:37:52.982Z,28.43
2023-05-02T21:40:23.172Z,28.00
2023-05-02T21:42:53.385Z,30.58
2023-05-02T21:45:23.788Z,31.63
2023-05-02T21:47:55.038Z,30.53
2023-05-02T21:52:55.863Z,29.67
2023-05-02T21:55:26.322Z,24.67
2023-05-02T21:57:56.530Z,28.25
2023-05-02T22:00:27.134Z,31.70
2023-05-02T22:02:57.795Z,31.30
2023-05-02T22:05:30.107Z,30.97
2023-05-02T22:08:03.225Z,29.55
2023-05-02T22:10:33.715Z,33.63
2023-05-02T22:13:05.649Z,26.40
2023-05-02T22:15:35.961Z,28.92
2023-05-02T22:18:09.033Z,34.80
2023-05-02T22:20:40.435Z,35.83
2023-05-02T22:25:47.043Z,35.95
2023-05-02T22:28:17.533Z,32.40
2023-05-02T22:30:47.867Z,31.20
2023-05-02T22:33:18.300Z,34.73
2023-05-02T22:35:48.623Z,39.88
2023-05-02T22:38:22.228Z,33.47
2023-05-02T22:40:52.942Z,28.85
2023-05-02T22:43:23.256Z,33.20
2023-05-02T22:45:54.287Z,33.78
2023-05-02T22:48:25.687Z,40.28
2023-05-02T22:50:56.258Z,35.67
2023-05-02T22:53:27.424Z,42.47
2023-05-02T22:55:58.477Z,34.40
2023-05-02T23:01:02.219Z,33.63
2023-05-02T23:03:32.684Z,32.30
2023-05-02T23:06:03.354Z,33.00
2023-05-02T23:08:33.612Z,29.15
2023-05-02T23:11:03.879Z,33.95
2023-05-02T23:13:34.147Z,35.60
2023-05-02T23:16:04.823Z,33.38
2023-05-02T23:18:35.064Z,32.13
2023-05-02T23:21:07.108Z,32.20
2023-05-02T23:23:37.398Z,32.58
2023-05-02T23:26:10.242Z,26.97
2023-05-02T23:28:41.553Z,27.15
2023-05-02T23:31:12.522Z,32.45
2023-05-02T23:33:45.235Z,32.65
2023-05-02T23:36:15.676Z,27.00
2023-05-02T23:38:46.067Z,31.48
2023-05-02T23:41:16.600Z,26.87
2023-05-02T23:43:47.464Z,28.50
2023-05-02T23:46:17.835Z,27.23
2023-05-02T23:48:48.257Z,29.47
2023-05-02T23:51:18.567Z,27.73
2023-05-02T23:53:48.891Z,35.72
2023-05-02T23:56:19.273Z,30.48
2023-05-02T23:58:49.604Z,28.38
